Archival Weather

Downtown Manhattan/Wall St

New York, Downtown Manhattan/Wall St (KJRB)

Report from: Friday, February 23, 2024 2:56 AM EST
Current time: Wednesday, May 29, 2024 7:48 PM EDT

Current weather – Weather history – Daily summaries
Weather forecast

Temperature5.6°C (42.1°F)
Wind chill3.6°C (38.4°F)
Dew point3.9°C (39.0°F)
Winds 5 kts (2.6 m/s, 5.8 mph) Northeast (40°)
Visibility10 mi. (16.1 km)
Clouds Few clouds 6,500 ft. (1,981 m)
Scattered clouds 8,000 ft. (2,438 m)
Ceiling: Broken clouds 11,000 ft. (3,353 m)
Altimeter29.59 in.Hg (1002 mB)
Precip. events Rain ended 7:51 AM
Relative humidity89 %
Density altitude-635 ft. (-194 m)
Sea-level pressure100.2 kPa (1002 mB, 29.59 in.Hg)
Remarks Fully automated report
System requires maintenance
Automated weather observing station with precipitation discriminator
Precipitation sensor not operating
Flight conditions Visual Meteorological Conditions
Raw dataKJRB 230756Z AUTO 04005KT 10SM FEW065 SCT080 BKN110 06/04 A2959 RMK AO2 RAE51 SLP021 T00560039 PNO $
An error has occurred. This application may no longer respond until reloaded. Reload 🗙